Date,TemperatureHighF,TemperatureAvgF,TemperatureLowF,DewpointHighF,DewpointAvgF,DewpointLowF,HumidityHigh,HumidityAvg,HumidityLow,PressureMaxIn,PressureMinIn,WindSpeedMaxMPH,WindSpeedAvgMPH,GustSpeedMaxMPH,PrecipitationSumIn
2013-9-1,92.9,77.2,63.9,57.0,51.7,46.0,68,44,23,29.90,29.81,6,2,10,0.00
2013-9-2,78.9,71.1,66.6,67.0,61.4,57.0,91,72,54,29.93,29.86,4,1,9,0.16
2013-9-3,87.5,73.2,62.0,61.0,55.4,49.0,85,58,27,29.97,29.88,7,2,9,0.01
2013-9-4,89.4,72.9,60.0,57.0,53.1,44.0,80,54,21,30.01,29.88,8,2,11,0.00
2013-9-5,88.3,72.2,59.1,56.0,52.8,46.0,79,55,23,29.98,29.88,8,2,11,0.00
2013-9-6,92.0,73.7,56.6,54.0,48.2,41.0,80,47,17,29.97,29.81,9,1,11,0.00
2013-9-7,98.4,80.0,62.9,54.0,48.0,42.0,58,36,17,29.87,29.76,5,0,7,0.00
2013-9-8,98.1,80.4,62.5,54.0,49.6,44.0,67,38,16,29.84,29.70,7,1,10,0.00
2013-9-9,100.1,81.7,64.8,56.0,49.8,45.0,60,35,18,29.77,29.62,5,1,6,0.00
2013-9-10,90.6,75.5,63.4,59.0,54.4,48.0,79,50,31,29.85,29.66,10,2,14,0.00
2013-9-11,83.5,69.0,59.4,59.0,57.0,55.0,89,68,38,29.97,29.86,8,2,11,0.00
2013-9-12,89.5,72.1,59.1,60.0,57.9,55.0,90,65,32,29.96,29.82,7,2,8,0.00
2013-9-13,93.4,74.5,60.0,61.0,57.1,53.0,87,58,31,29.86,29.68,4,1,7,0.00
2013-9-14,90.5,73.1,59.7,58.0,55.0,53.0,78,55,32,29.77,29.66,5,1,8,0.00
2013-9-15,89.5,70.7,57.3,55.0,52.1,47.0,79,56,23,29.83,29.71,8,2,11,0.00
2013-9-16,88.7,71.7,58.0,59.0,54.6,50.0,85,59,27,29.87,29.72,5,1,8,0.00
2013-9-17,81.2,68.6,56.6,55.0,52.1,48.0,84,58,31,29.85,29.77,7,2,14,0.00
2013-9-18,83.9,68.5,56.1,55.0,47.3,40.0,85,51,21,29.90,29.78,9,2,16,0.00
2013-9-19,92.1,72.1,53.9,50.0,44.9,41.0,71,43,17,29.86,29.71,4,0,6,0.00
2013-9-20,82.8,68.9,56.2,58.0,49.9,41.0,80,53,35,29.84,29.73,11,2,16,0.00
2013-9-21,71.3,61.8,57.3,57.0,55.6,53.0,93,81,53,29.89,29.80,11,1,15,0.33
2013-9-22,73.3,61.4,50.1,53.0,51.0,48.0,95,71,42,29.99,29.88,5,1,10,0.00
2013-9-23,82.7,66.4,51.5,56.0,52.4,49.0,91,64,35,30.02,29.90,5,1,9,0.00
2013-9-24,80.3,67.3,58.8,56.0,52.7,47.0,83,62,32,29.97,29.83,8,2,16,0.00
2013-9-25,71.5,61.7,52.5,51.0,44.0,33.0,87,56,25,29.91,29.79,11,2,12,0.00
2013-9-26,73.9,61.7,48.5,42.0,38.5,32.0,70,45,26,29.96,29.80,19,4,22,0.00
2013-9-27,77.3,62.1,46.8,43.0,38.0,33.0,75,45,20,30.09,29.96,6,1,9,0.00
2013-9-28,84.4,67.9,50.9,45.0,39.3,34.0,72,39,17,30.09,29.97,5,1,9,0.00
2013-9-29,78.7,67.2,57.3,58.0,52.8,40.0,83,61,44,30.11,30.02,6,2,11,0.00
2013-9-30,79.0,68.2,60.3,59.0,58.0,56.0,87,71,50,30.07,29.93,6,1,9,0.00